Aérodrome :
LOGIN :

S'inscrire | Disclaimer

   EN    FR    IT 

 










Légende :    VFR   VFR Marginal   IFR   IFR Intensif   IFR Très Intensif
Visi : 
Plafond : 
>= 8 km
>= 3000ft
5 à 8 km
1000 à 3000 ft
1500m à 5 km
500 à 1000 ft
800 à 1500m
200 à 500 ft
< 800m
< 200 ft
Symboles :   Orages  Brouillard  Fortes neiges  Fortes précipitations  Vent > 20 kt
SIGMETs :   Divers  Orages  Givrage  Turbulence  Onde Orograph.  Cendres Volcan.







- Altitude de l'aérodrome : 1682 ft
- Code IATA : VIT


LEVT - Vitoria Gasteiz

DERNIER METAR :
  • 280030Z VRB01KT 9999 FEW035 M01/M02 Q1021

METARs EXPIRÉS :
  • 280000Z 00000KT 9999 FEW035 M01/M02 Q1021
  • 272330Z 02006KT 9999 FEW035 M00/M02 Q1021
  • 272300Z 00000KT 9999 FEW035 M00/M01 Q1021
  • 272230Z 17001KT 9999 FEW035 M01/M02 Q1021
  • 272200Z 35001KT 9999 FEW040 01/M01 Q1022
  • 272130Z VRB01KT 9999 FEW040 M00/M02 Q1021

TAF TAF LEVT
Valide du 28 à 00h jusqu'au 29 à 00h UTC


272300Z 2800/2824 VRB03KT 9999 FEW040 TX15/2815Z TNM01/2805Z
TEMPO 2812/2818 02010KT
Pas de NOTAMs connus pour ce terrain.



MET'MAP, la Météo Aéronautique d'un coup d'oeil ! - Copyright ORBIFLY Décembre 2007 - Disclaimer

ORBIFLY MET'MAP TEAM :

Programmation & Développement : Alexandra Zaïnal
Conception & Développement : Baudouin d'Aumeries
Co-Programmation & Développement : Marc-Olivier Méhu
Soutien technique & logistique : Manuel Goepfert

Contact : metmap@orbifly.com




SOURCES & CREDITS :

   NOAA